createdAt,value
2022-09-03T00:00:12.282Z,19.50
2022-09-03T00:02:46.056Z,19.50
2022-09-03T00:05:40.276Z,19.70
2022-09-03T00:08:23.364Z,19.50
2022-09-03T00:11:03.370Z,19.00
2022-09-03T00:13:43.026Z,19.00
2022-09-03T00:16:18.507Z,19.10
2022-09-03T00:18:57.419Z,19.30
2022-09-03T00:21:41.028Z,19.50
2022-09-03T00:24:15.228Z,19.50
2022-09-03T00:26:46.848Z,19.50
2022-09-03T00:30:04.220Z,19.50
2022-09-03T00:32:37.873Z,19.50
2022-09-03T00:35:11.800Z,19.50
2022-09-03T00:37:42.081Z,19.70
2022-09-03T00:40:19.751Z,19.70
2022-09-03T00:42:59.554Z,19.80
2022-09-03T00:45:44.441Z,19.70
2022-09-03T00:48:48.468Z,19.70
2022-09-03T00:51:55.086Z,19.70
2022-09-03T00:54:41.837Z,19.70
2022-09-03T00:57:27.332Z,19.50
2022-09-03T01:00:03.885Z,19.50
2022-09-03T01:02:46.908Z,19.40
2022-09-03T01:05:45.108Z,19.30
2022-09-03T01:08:33.714Z,19.20
2022-09-03T01:11:27.477Z,19.20
2022-09-03T01:14:28.919Z,19.20
2022-09-03T01:17:12.711Z,19.30
2022-09-03T01:19:59.982Z,19.40
2022-09-03T01:22:52.512Z,19.40
2022-09-03T01:25:45.967Z,19.40
2022-09-03T01:28:23.907Z,19.20
2022-09-03T01:31:27.452Z,19.00
2022-09-03T01:34:23.510Z,19.00
2022-09-03T01:37:05.998Z,18.80
2022-09-03T01:39:39.310Z,18.70
2022-09-03T01:42:32.618Z,18.60
2022-09-03T01:45:26.125Z,18.70
2022-09-03T01:48:07.117Z,18.60
2022-09-03T01:50:39.568Z,18.70
2022-09-03T01:53:25.728Z,18.90
2022-09-03T01:56:29.864Z,19.00
2022-09-03T01:59:34.910Z,18.50
2022-09-03T02:02:08.785Z,18.60
2022-09-03T02:04:36.800Z,18.80
2022-09-03T02:07:06.033Z,18.80
2022-09-03T02:09:33.406Z,18.70
2022-09-03T02:12:14.040Z,18.80
2022-09-03T02:14:42.476Z,18.90
2022-09-03T02:17:11.262Z,19.10
2022-09-03T02:19:39.469Z,19.20
2022-09-03T02:22:07.329Z,19.40
2022-09-03T02:24:34.722Z,19.40
2022-09-03T02:27:02.501Z,19.30
2022-09-03T02:29:30.968Z,18.90
2022-09-03T02:31:59.121Z,18.80
2022-09-03T02:34:27.519Z,18.50
2022-09-03T02:36:54.735Z,18.50
2022-09-03T02:39:22.510Z,18.50
2022-09-03T02:41:58.882Z,18.60
2022-09-03T02:44:31.917Z,18.70
2022-09-03T02:47:02.759Z,18.70
2022-09-03T02:49:31.371Z,18.80
2022-09-03T02:52:12.411Z,18.90
2022-09-03T02:54:40.501Z,18.80
2022-09-03T02:57:09.783Z,18.60
2022-09-03T02:59:39.023Z,18.60
2022-09-03T03:02:06.478Z,18.70
2022-09-03T03:04:34.055Z,18.80
2022-09-03T03:07:01.622Z,18.90
2022-09-03T03:09:32.568Z,18.60
2022-09-03T03:12:01.851Z,18.50
2022-09-03T03:14:30.657Z,18.70
2022-09-03T03:16:58.045Z,18.70
2022-09-03T03:19:27.285Z,18.80
2022-09-03T03:21:54.619Z,18.90
2022-09-03T03:24:22.007Z,19.00
2022-09-03T03:26:50.884Z,19.00
2022-09-03T03:29:18.621Z,19.10
2022-09-03T03:31:46.263Z,19.10
2022-09-03T03:34:13.864Z,19.10
2022-09-03T03:36:41.572Z,19.00
2022-09-03T03:39:11.300Z,18.90
2022-09-03T03:41:39.018Z,18.70
2022-09-03T03:44:07.951Z,18.60
2022-09-03T03:46:38.753Z,18.70
2022-09-03T03:49:08.181Z,18.70
2022-09-03T03:51:36.403Z,18.80
2022-09-03T03:54:05.500Z,18.40
2022-09-03T03:56:35.020Z,18.30
2022-09-03T03:59:04.291Z,18.40
2022-09-03T04:01:33.569Z,18.50
2022-09-03T04:04:01.029Z,18.60
2022-09-03T04:06:29.834Z,18.70
2022-09-03T04:08:57.573Z,18.80
2022-09-03T04:11:25.709Z,18.80
2022-09-03T04:13:56.959Z,18.50
2022-09-03T04:16:27.283Z,18.20
2022-09-03T04:18:56.388Z,18.10
2022-09-03T04:21:30.281Z,18.00
2022-09-03T04:23:58.750Z,17.90
2022-09-03T04:26:33.046Z,17.90
2022-09-03T04:29:03.380Z,18.00
2022-09-03T04:31:32.390Z,18.00
2022-09-03T04:34:00.122Z,17.90
2022-09-03T04:36:30.001Z,18.00
2022-09-03T04:39:00.269Z,18.10
2022-09-03T04:41:30.877Z,18.20
2022-09-03T04:43:59.298Z,18.40
2022-09-03T04:46:33.913Z,18.50
2022-09-03T04:49:02.521Z,18.60
2022-09-03T04:51:31.688Z,18.60
2022-09-03T04:54:01.511Z,18.70
2022-09-03T04:56:34.088Z,18.70
2022-09-03T04:59:06.979Z,18.80
2022-09-03T05:01:38.828Z,18.60
2022-09-03T05:04:08.048Z,18.50
2022-09-03T05:06:37.273Z,18.60
2022-09-03T05:09:04.736Z,18.70
2022-09-03T05:11:34.109Z,18.80
2022-09-03T05:14:08.568Z,18.90
2022-09-03T05:16:36.426Z,19.10
2022-09-03T05:19:08.197Z,18.90
2022-09-03T05:21:36.680Z,18.60
2022-09-03T05:24:06.145Z,18.80
2022-09-03T05:26:38.432Z,18.90
2022-09-03T05:29:07.954Z,19.10
2022-09-03T05:31:39.308Z,19.20
2022-09-03T05:34:07.920Z,19.40
2022-09-03T05:36:38.599Z,19.50
2022-09-03T05:39:06.660Z,19.50
2022-09-03T05:41:37.384Z,19.60
2022-09-03T05:44:06.467Z,19.80
2022-09-03T05:46:37.583Z,20.00
2022-09-03T05:49:07.242Z,20.50
2022-09-03T05:51:54.092Z,20.50
2022-09-03T05:54:22.575Z,20.50
2022-09-03T05:56:50.091Z,20.70
2022-09-03T05:59:19.306Z,20.60
2022-09-03T06:01:51.453Z,20.50
2022-09-03T06:04:20.216Z,20.50
2022-09-03T06:06:49.335Z,20.50
2022-09-03T06:09:19.679Z,20.50
2022-09-03T06:11:50.785Z,20.40
2022-09-03T06:14:21.238Z,20.40
2022-09-03T06:16:50.280Z,20.50
2022-09-03T06:19:18.660Z,20.50
2022-09-03T06:21:47.224Z,20.40
2022-09-03T06:24:18.036Z,20.40
2022-09-03T06:26:47.109Z,20.40
2022-09-03T06:29:14.852Z,20.30
2022-09-03T06:31:42.371Z,20.30
2022-09-03T06:34:10.627Z,20.40
2022-09-03T06:36:43.658Z,20.50
2022-09-03T06:39:12.299Z,20.60
2022-09-03T06:41:40.272Z,20.60
2022-09-03T06:44:12.140Z,20.70
2022-09-03T06:46:42.896Z,20.70
2022-09-03T06:49:12.381Z,20.80
2022-09-03T06:51:40.038Z,20.90
2022-09-03T06:54:09.591Z,20.80
2022-09-03T06:56:55.398Z,20.70
2022-09-03T06:59:22.801Z,20.50
2022-09-03T07:01:50.737Z,20.30
2022-09-03T07:04:33.627Z,20.10
2022-09-03T07:07:20.865Z,20.50
2022-09-03T07:10:07.324Z,20.60
2022-09-03T07:12:37.806Z,20.90
2022-09-03T07:15:07.893Z,21.10
2022-09-03T07:17:35.196Z,21.40
2022-09-03T07:20:03.039Z,21.50
2022-09-03T07:22:31.727Z,21.50
2022-09-03T07:24:59.478Z,21.60
2022-09-03T07:27:27.744Z,21.70
2022-09-03T07:30:18.373Z,21.80
2022-09-03T07:32:46.720Z,21.90
2022-09-03T07:35:15.757Z,21.90
2022-09-03T07:37:44.926Z,21.90
2022-09-03T07:40:12.329Z,21.90
2022-09-03T07:42:40.525Z,22.00
2022-09-03T07:45:13.350Z,22.00
2022-09-03T07:47:50.354Z,21.90
2022-09-03T07:50:17.769Z,21.90
2022-09-03T07:52:44.993Z,22.00
2022-09-03T07:55:13.968Z,21.90
2022-09-03T07:57:41.420Z,21.70
2022-09-03T08:00:10.808Z,21.70
2022-09-03T08:02:41.969Z,21.90
2022-09-03T08:05:12.896Z,21.90
2022-09-03T08:07:40.272Z,22.10
2022-09-03T08:10:10.327Z,22.20
2022-09-03T08:12:37.549Z,22.40
2022-09-03T08:15:08.029Z,22.20
2022-09-03T08:17:35.593Z,22.10
2022-09-03T08:20:06.648Z,22.20
2022-09-03T08:22:35.432Z,22.30
2022-09-03T08:25:03.844Z,22.50
2022-09-03T08:27:32.463Z,22.50
2022-09-03T08:30:05.880Z,22.60
2022-09-03T08:32:35.708Z,22.70
2022-09-03T08:35:04.543Z,22.70
2022-09-03T08:37:33.389Z,22.80
2022-09-03T08:40:00.889Z,22.80
2022-09-03T08:42:50.482Z,22.80
2022-09-03T08:45:26.010Z,22.80
2022-09-03T08:48:05.928Z,22.90
2022-09-03T08:50:38.830Z,23.00
2022-09-03T08:53:14.141Z,23.10
2022-09-03T08:55:52.218Z,23.10
2022-09-03T08:58:26.592Z,23.00
2022-09-03T09:01:32.098Z,23.00
2022-09-03T09:04:14.705Z,23.10
2022-09-03T09:06:47.857Z,23.10
2022-09-03T09:09:31.468Z,22.90
2022-09-03T09:12:18.720Z,22.80
2022-09-03T09:14:58.659Z,22.80
2022-09-03T09:17:47.654Z,22.80
2022-09-03T09:20:44.969Z,22.80
2022-09-03T09:23:26.977Z,22.90
2022-09-03T09:25:59.034Z,22.90
2022-09-03T09:28:33.437Z,22.90
2022-09-03T09:31:03.356Z,23.00
2022-09-03T09:33:32.480Z,23.00
2022-09-03T09:36:06.715Z,23.00
2022-09-03T09:38:37.089Z,23.20
2022-09-03T09:41:20.403Z,23.40
2022-09-03T09:43:48.398Z,23.60
2022-09-03T09:46:21.867Z,23.60
2022-09-03T09:48:57.819Z,23.60
2022-09-03T09:51:31.568Z,23.40
2022-09-03T09:54:20.250Z,23.40
2022-09-03T09:57:00.211Z,23.30
2022-09-03T09:59:27.640Z,23.20
2022-09-03T10:02:09.541Z,23.20
2022-09-03T10:04:38.029Z,23.20
2022-09-03T10:07:23.136Z,23.30
2022-09-03T10:10:04.890Z,23.60
2022-09-03T10:13:03.911Z,24.00
2022-09-03T10:15:51.352Z,24.20
2022-09-03T10:18:28.913Z,24.20
2022-09-03T10:21:12.773Z,24.20
2022-09-03T10:24:07.892Z,24.00
2022-09-03T10:26:37.425Z,24.00
2022-09-03T10:29:07.297Z,24.10
2022-09-03T10:31:48.921Z,24.20
2022-09-03T10:34:57.466Z,24.20
2022-09-03T10:37:41.307Z,24.20
2022-09-03T10:40:37.240Z,24.10
2022-09-03T10:43:14.957Z,24.20
2022-09-03T10:46:10.483Z,24.30
2022-09-03T10:49:11.774Z,24.40
2022-09-03T10:51:49.535Z,24.80
2022-09-03T10:54:25.673Z,24.70
2022-09-03T10:56:58.512Z,25.00
2022-09-03T10:59:40.085Z,25.20
2022-09-03T11:02:15.534Z,25.50
2022-09-03T11:05:08.144Z,25.60
2022-09-03T11:08:07.238Z,25.50
2022-09-03T11:10:41.178Z,25.70
2022-09-03T11:13:25.734Z,25.80
2022-09-03T11:16:20.353Z,26.00
2022-09-03T11:18:51.963Z,26.10
2022-09-03T11:21:25.709Z,25.90
2022-09-03T11:24:05.699Z,25.80
2022-09-03T11:26:35.490Z,25.60
2022-09-03T11:29:17.091Z,25.60
2022-09-03T11:32:14.372Z,25.90
2022-09-03T11:34:54.832Z,26.40
2022-09-03T11:37:31.280Z,26.80
2022-09-03T11:40:28.449Z,27.00
2022-09-03T11:43:13.028Z,27.20
2022-09-03T11:45:41.143Z,27.40
2022-09-03T11:48:33.653Z,27.60
2022-09-03T11:51:01.017Z,27.70
2022-09-03T11:53:35.468Z,27.60
2022-09-03T11:56:07.880Z,27.60
2022-09-03T11:58:39.723Z,27.60
2022-09-03T12:01:16.093Z,27.50
2022-09-03T12:03:48.893Z,27.50
2022-09-03T12:06:46.936Z,27.70
2022-09-03T12:09:26.411Z,27.50
2022-09-03T12:12:35.381Z,27.70
2022-09-03T12:15:39.297Z,27.70
2022-09-03T12:18:21.954Z,27.80
2022-09-03T12:21:11.001Z,28.20
2022-09-03T12:23:58.097Z,28.40
2022-09-03T12:26:28.222Z,28.80
2022-09-03T12:28:58.503Z,28.50
2022-09-03T12:31:29.815Z,28.20
2022-09-03T12:34:17.334Z,28.30
2022-09-03T12:36:47.892Z,28.40
2022-09-03T12:40:04.519Z,28.70
2022-09-03T12:42:12.784Z,28.90
2022-09-03T12:44:44.586Z,29.10
2022-09-03T12:47:37.367Z,29.10
2022-09-03T12:50:11.664Z,29.20
2022-09-03T12:53:07.819Z,29.30
2022-09-03T12:55:55.022Z,29.50
2022-09-03T12:58:35.780Z,29.40
2022-09-03T13:01:09.391Z,29.70
2022-09-03T13:04:10.289Z,29.70
2022-09-03T13:07:01.474Z,29.50
2022-09-03T13:09:31.769Z,29.10
2022-09-03T13:11:59.402Z,28.70
2022-09-03T13:14:27.794Z,28.70
2022-09-03T13:17:08.035Z,28.70
2022-09-03T13:19:52.337Z,28.70
2022-09-03T13:22:26.037Z,28.80
2022-09-03T13:25:35.707Z,28.50
2022-09-03T13:28:27.747Z,28.00
2022-09-03T13:31:31.104Z,27.70
2022-09-03T13:34:16.148Z,27.70
2022-09-03T13:37:21.777Z,27.80
2022-09-03T13:40:04.782Z,28.10
2022-09-03T13:42:44.200Z,28.20
2022-09-03T13:45:44.525Z,28.30
2022-09-03T13:48:51.693Z,28.50
2022-09-03T13:51:45.217Z,28.70
2022-09-03T13:54:42.456Z,28.70
2022-09-03T13:57:30.076Z,28.90
2022-09-03T14:00:00.930Z,29.20
2022-09-03T14:02:54.580Z,29.20
2022-09-03T14:05:53.716Z,28.30
2022-09-03T14:09:02.615Z,28.50
2022-09-03T14:11:57.386Z,28.90
2022-09-03T14:14:55.456Z,28.80
2022-09-03T14:18:05.205Z,28.30
2022-09-03T14:20:57.231Z,28.10
2022-09-03T14:23:42.309Z,28.60
2022-09-03T14:26:39.490Z,28.50
2022-09-03T14:29:17.246Z,27.90
2022-09-03T14:32:05.280Z,27.80
2022-09-03T14:35:17.347Z,27.50
2022-09-03T14:38:25.984Z,27.70
2022-09-03T14:41:05.972Z,27.30
2022-09-03T14:43:52.518Z,27.00
2022-09-03T14:46:33.494Z,26.80
2022-09-03T14:49:16.177Z,26.70
2022-09-03T14:52:20.179Z,26.90
2022-09-03T14:55:07.354Z,27.20
2022-09-03T14:57:44.155Z,27.30
2022-09-03T15:00:50.922Z,27.50
2022-09-03T15:03:24.116Z,28.00
2022-09-03T15:06:13.028Z,27.80
2022-09-03T15:08:51.341Z,27.40
2022-09-03T15:11:23.077Z,27.40
2022-09-03T15:14:35.744Z,27.50
2022-09-03T15:17:36.923Z,27.50
2022-09-03T15:20:23.119Z,27.30
2022-09-03T15:23:14.162Z,27.20
2022-09-03T15:25:41.776Z,27.20
2022-09-03T15:28:21.332Z,27.00
2022-09-03T15:31:04.548Z,27.00
2022-09-03T15:33:32.838Z,27.30
2022-09-03T15:36:09.272Z,27.50
2022-09-03T15:39:05.972Z,27.30
2022-09-03T15:41:45.438Z,27.10
2022-09-03T15:44:19.507Z,27.00
2022-09-03T15:47:00.952Z,26.90
2022-09-03T15:49:58.630Z,27.10
2022-09-03T15:52:29.136Z,26.80
2022-09-03T15:55:07.808Z,26.70
2022-09-03T15:58:15.555Z,26.60
2022-09-03T16:01:00.302Z,26.80
2022-09-03T16:03:45.629Z,26.80
2022-09-03T16:06:39.151Z,26.80
2022-09-03T16:09:25.901Z,27.00
2022-09-03T16:12:20.953Z,27.00
2022-09-03T16:15:33.938Z,27.00
2022-09-03T16:18:09.536Z,27.00
2022-09-03T16:20:46.620Z,27.10
2022-09-03T16:23:31.319Z,27.10
2022-09-03T16:26:06.113Z,27.20
2022-09-03T16:28:35.191Z,27.00
2022-09-03T16:31:09.882Z,26.80
2022-09-03T16:34:18.636Z,26.50
2022-09-03T16:36:59.286Z,26.60
2022-09-03T16:39:41.915Z,26.40
2022-09-03T16:42:23.986Z,26.00
2022-09-03T16:45:12.405Z,25.70
2022-09-03T16:48:00.727Z,25.60
2022-09-03T16:50:47.269Z,25.60
2022-09-03T16:53:23.654Z,25.50
2022-09-03T16:56:34.415Z,25.40
2022-09-03T16:59:37.875Z,25.30
2022-09-03T17:02:40.498Z,25.10
2022-09-03T17:05:14.213Z,25.00
2022-09-03T17:08:09.618Z,25.00
2022-09-03T17:10:58.252Z,25.00
2022-09-03T17:13:49.151Z,24.90
2022-09-03T17:16:38.301Z,24.80
2022-09-03T17:19:28.212Z,24.80
2022-09-03T17:22:13.296Z,24.70
2022-09-03T17:25:24.049Z,24.60
2022-09-03T17:28:28.848Z,24.60
2022-09-03T17:31:34.097Z,24.60
2022-09-03T17:35:00.806Z,24.40
2022-09-03T17:38:17.825Z,24.40
2022-09-03T17:41:00.453Z,24.40
2022-09-03T17:43:54.187Z,24.40
2022-09-03T17:46:33.865Z,24.30
2022-09-03T17:49:06.582Z,24.20
2022-09-03T17:51:51.674Z,24.30
2022-09-03T17:54:34.828Z,24.20
2022-09-03T17:57:31.145Z,24.10
2022-09-03T18:00:06.125Z,24.10
2022-09-03T18:02:47.379Z,24.20
2022-09-03T18:05:28.128Z,24.00
2022-09-03T18:08:02.084Z,24.00
2022-09-03T18:10:54.139Z,24.00
2022-09-03T18:13:48.687Z,23.90
2022-09-03T18:16:29.825Z,23.90
2022-09-03T18:19:19.482Z,23.90
2022-09-03T18:22:47.208Z,23.80
2022-09-03T18:25:35.513Z,23.80
2022-09-03T18:28:26.174Z,23.80
2022-09-03T18:31:12.317Z,23.70
2022-09-03T18:33:58.338Z,23.70
2022-09-03T18:36:47.159Z,23.70
2022-09-03T18:39:45.267Z,23.60
2022-09-03T18:43:00.591Z,23.60
2022-09-03T18:49:29.753Z,23.60
2022-09-03T18:52:34.155Z,23.50
2022-09-03T18:55:53.451Z,23.50
2022-09-03T18:59:19.653Z,23.50
2022-09-03T19:02:05.525Z,23.40
2022-09-03T19:05:22.397Z,23.40
2022-09-03T19:08:31.916Z,23.50
2022-09-03T19:11:25.148Z,23.50
2022-09-03T19:14:11.454Z,23.30
2022-09-03T19:17:26.444Z,23.20
2022-09-03T19:20:24.221Z,23.20
2022-09-03T19:23:10.498Z,23.20
2022-09-03T19:25:56.888Z,23.10
2022-09-03T19:28:44.759Z,23.00
2022-09-03T19:32:04.595Z,22.80
2022-09-03T19:35:12.498Z,22.60
2022-09-03T19:38:26.198Z,22.50
2022-09-03T19:41:20.365Z,22.30
2022-09-03T19:44:19.175Z,22.50
2022-09-03T19:47:10.942Z,22.60
2022-09-03T19:50:08.967Z,22.60
2022-09-03T19:53:14.705Z,22.40
2022-09-03T19:56:11.244Z,21.90
2022-09-03T19:59:02.856Z,22.00
2022-09-03T20:01:56.276Z,22.10
2022-09-03T20:05:07.489Z,22.30
2022-09-03T20:07:55.603Z,22.50
2022-09-03T20:10:24.565Z,22.50
2022-09-03T20:12:59.343Z,22.50
2022-09-03T20:15:46.450Z,22.20
2022-09-03T20:18:14.832Z,21.70
2022-09-03T20:21:16.945Z,21.30
2022-09-03T20:24:43.577Z,21.40
2022-09-03T20:27:28.227Z,21.50
2022-09-03T20:30:02.934Z,21.70
2022-09-03T20:32:54.990Z,22.00
2022-09-03T20:35:43.759Z,22.10
2022-09-03T20:38:14.841Z,22.00
2022-09-03T20:40:49.647Z,21.90
2022-09-03T20:43:44.717Z,21.90
2022-09-03T20:46:35.131Z,21.70
2022-09-03T20:49:20.846Z,21.70
2022-09-03T20:52:08.408Z,21.90
2022-09-03T20:55:07.981Z,21.90
2022-09-03T20:58:14.859Z,21.90
2022-09-03T21:01:03.526Z,21.70
2022-09-03T21:03:52.464Z,21.50
2022-09-03T21:06:32.098Z,21.50
2022-09-03T21:09:29.105Z,21.40
2022-09-03T21:12:20.059Z,21.30
2022-09-03T21:15:16.839Z,21.10
2022-09-03T21:18:10.523Z,21.00
2022-09-03T21:21:13.556Z,21.10
2022-09-03T21:23:46.802Z,21.30
2022-09-03T21:26:25.880Z,21.10
2022-09-03T21:29:21.535Z,21.10
2022-09-03T21:32:04.533Z,21.00
2022-09-03T21:34:43.607Z,20.80
2022-09-03T21:37:13.783Z,20.70
2022-09-03T21:39:44.723Z,20.70
2022-09-03T21:42:21.825Z,20.80
2022-09-03T21:45:07.789Z,21.00
2022-09-03T21:47:45.254Z,21.00
2022-09-03T21:50:20.139Z,21.10
2022-09-03T21:53:09.706Z,21.20
2022-09-03T21:56:16.105Z,21.10
2022-09-03T21:58:46.940Z,21.20
2022-09-03T22:01:25.142Z,21.40
2022-09-03T22:03:53.504Z,21.50
2022-09-03T22:06:39.509Z,21.40
2022-09-03T22:09:13.945Z,21.40
2022-09-03T22:12:08.953Z,21.30
2022-09-03T22:14:44.483Z,21.30
2022-09-03T22:17:18.465Z,21.10
2022-09-03T22:19:47.017Z,21.00
2022-09-03T22:22:45.580Z,21.00
2022-09-03T22:25:30.122Z,21.00
2022-09-03T22:28:11.883Z,21.00
2022-09-03T22:31:04.307Z,21.10
2022-09-03T22:33:50.434Z,21.10
2022-09-03T22:36:28.156Z,21.10
2022-09-03T22:38:58.927Z,21.10
2022-09-03T22:41:52.996Z,21.10
2022-09-03T22:45:03.299Z,21.10
2022-09-03T22:47:40.598Z,21.10
2022-09-03T22:50:24.105Z,21.20
2022-09-03T22:53:19.725Z,21.30
2022-09-03T22:56:05.001Z,21.10
2022-09-03T22:58:48.273Z,21.10
2022-09-03T23:01:43.326Z,21.10
2022-09-03T23:05:19.469Z,21.20
2022-09-03T23:08:29.146Z,21.40
2022-09-03T23:11:34.204Z,21.30
2022-09-03T23:15:22.429Z,21.10
2022-09-03T23:18:17.731Z,21.00
2022-09-03T23:21:10.065Z,21.00
2022-09-03T23:23:45.841Z,21.00
2022-09-03T23:26:16.284Z,20.90
2022-09-03T23:28:49.084Z,20.60
2022-09-03T23:31:20.077Z,20.60
2022-09-03T23:33:50.232Z,20.30
2022-09-03T23:37:22.336Z,20.30
2022-09-03T23:40:05.288Z,20.10
2022-09-03T23:42:50.432Z,20.10
2022-09-03T23:45:25.951Z,20.30
2022-09-03T23:48:03.094Z,20.50
2022-09-03T23:50:44.964Z,20.80
2022-09-03T23:53:38.999Z,20.90
2022-09-03T23:56:31.084Z,20.90
2022-09-03T23:59:32.869Z,20.70
